Time;durP1;ratioP1;P1;durP2;ratioP2;P2;SDS_P1;SDS_P2;PMS_P1;PMS_P2;Temp;Humidity;BMP_temperature;BMP_pressure;BME280_temperature;BME280_humidity;BME280_pressure;Samples;Min_cycle;Max_cycle;Signal;HPM_P1;HPM_P2
2022/09/27 00:00:38;;;;;;;2.42;0.47;;;14.80;67.30;;;;;;2292505;55;21021;-75
2022/09/27 00:03:05;;;;;;;0.93;0.40;;;14.80;67.30;;;;;;2306157;55;20957;-74
2022/09/27 00:05:31;;;;;;;1.55;0.50;;;14.90;67.40;;;;;;2293651;55;21074;-76
2022/09/27 00:07:58;;;;;;;1.00;0.50;;;14.80;67.30;;;;;;2303801;55;20965;-75
2022/09/27 00:10:25;;;;;;;1.40;0.60;;;14.90;67.50;;;;;;2294426;55;21065;-74
2022/09/27 00:12:51;;;;;;;1.30;0.50;;;14.90;67.50;;;;;;2291299;54;21456;-74
2022/09/27 00:15:20;;;;;;;1.23;0.50;;;14.90;67.50;;;;;;2346088;55;20946;-74
2022/09/27 00:17:50;;;;;;;1.08;0.50;;;14.90;67.50;;;;;;2292962;55;20976;-75
2022/09/27 00:20:17;;;;;;;2.55;0.55;;;14.90;67.50;;;;;;2440504;54;20973;-76
2022/09/27 00:22:47;;;;;;;1.37;0.60;;;14.90;67.90;;;;;;2273682;55;20966;-75
2022/09/27 00:25:13;;;;;;;1.62;0.50;;;14.90;67.60;;;;;;2292607;55;21014;-74
2022/09/27 00:27:40;;;;;;;1.30;0.45;;;14.90;67.60;;;;;;2287397;55;21772;-74
2022/09/27 00:30:08;;;;;;;1.55;0.65;;;14.90;67.60;;;;;;2302837;54;21037;-74
2022/09/27 00:32:37;;;;;;;0.80;0.40;;;14.90;67.70;;;;;;2302974;54;20989;-74
2022/09/27 00:35:04;;;;;;;2.92;0.73;;;14.90;67.70;;;;;;2291529;55;20970;-75
2022/09/27 00:37:30;;;;;;;0.88;0.50;;;14.90;67.70;;;;;;2454536;54;21121;-74
2022/09/27 00:39:56;;;;;;;0.80;0.47;;;14.90;67.80;;;;;;2291696;54;21058;-74
2022/09/27 00:42:22;;;;;;;1.80;0.62;;;14.90;67.80;;;;;;2291283;54;21052;-75
2022/09/27 00:45:00;;;;;;;1.45;0.50;;;15.00;68.00;;;;;;2293647;54;21478;-74
2022/09/27 00:47:32;;;;;;;0.77;0.40;;;15.00;67.90;;;;;;2298315;55;21084;-74
2022/09/27 00:50:19;;;;;;;1.05;0.50;;;15.00;67.90;;;;;;2314448;55;20969;-74
2022/09/27 00:54:17;;;;;;;0.77;0.40;;;15.00;67.80;;;;;;2308350;55;20954;-76
2022/09/27 00:56:45;;;;;;;1.17;0.60;;;15.00;67.50;;;;;;2297881;55;20965;-77
2022/09/27 00:59:37;;;;;;;1.65;0.60;;;15.00;67.80;;;;;;2487930;54;21934;-74
2022/09/27 01:02:04;;;;;;;1.27;0.50;;;15.00;67.70;;;;;;2333876;55;20997;-77
2022/09/27 01:04:30;;;;;;;0.93;0.30;;;15.00;67.80;;;;;;2320009;55;21549;-74
2022/09/27 01:06:57;;;;;;;1.48;0.60;;;15.00;67.90;;;;;;2320963;54;22151;-76
2022/09/27 01:09:25;;;;;;;2.22;0.70;;;15.00;67.90;;;;;;2306342;55;20969;-73
2022/09/27 01:13:25;;;;;;;1.65;0.70;;;15.00;68.00;;;;;;2303412;55;20986;-78
2022/09/27 01:16:37;;;;;;;0.45;0.40;;;15.10;67.80;;;;;;2450832;54;21142;-78
2022/09/27 01:19:56;;;;;;;1.45;0.60;;;15.10;67.90;;;;;;2298365;55;21081;-75
2022/09/27 01:24:24;;;;;;;1.17;0.57;;;15.10;67.90;;;;;;2290118;55;21053;-75
2022/09/27 01:30:20;;;;;;;1.60;0.50;;;15.10;68.00;;;;;;2302602;54;20954;-76
2022/09/27 01:33:10;;;;;;;1.65;0.50;;;15.10;67.50;;;;;;2316086;55;22102;-76
2022/09/27 01:36:37;;;;;;;1.48;0.47;;;15.10;67.80;;;;;;2390186;55;20969;-76
2022/09/27 01:42:03;;;;;;;1.52;0.57;;;15.10;67.90;;;;;;2312510;55;20956;-76
2022/09/27 01:45:32;;;;;;;0.75;0.30;;;15.20;67.60;;;;;;2344450;54;21528;-75
2022/09/27 01:48:09;;;;;;;1.37;0.47;;;15.20;68.20;;;;;;2294089;54;21014;-76
2022/09/27 01:50:39;;;;;;;1.77;0.50;;;15.20;68.00;;;;;;2410548;54;21032;-77
2022/09/27 01:53:52;;;;;;;1.12;0.40;;;15.10;67.90;;;;;;2313671;55;20992;-74
2022/09/27 01:56:30;;;;;;;1.23;0.50;;;15.20;68.00;;;;;;2298726;54;21022;-75
2022/09/27 01:59:06;;;;;;;1.70;0.40;;;15.20;68.00;;;;;;2374712;54;20985;-75
2022/09/27 02:01:33;;;;;;;1.05;0.30;;;15.20;68.20;;;;;;2353889;54;21042;-77
2022/09/27 02:04:00;;;;;;;1.00;0.62;;;15.20;68.80;;;;;;2284653;55;20992;-77
2022/09/27 02:06:40;;;;;;;1.25;0.45;;;15.20;68.10;;;;;;2424577;54;20942;-76
2022/09/27 02:09:12;;;;;;;0.80;0.40;;;15.20;68.10;;;;;;2291276;55;21134;-76
2022/09/27 02:11:40;;;;;;;1.05;0.40;;;15.20;68.20;;;;;;2297238;55;21037;-76
2022/09/27 02:14:16;;;;;;;0.80;0.40;;;15.20;68.20;;;;;;2300551;54;21016;-74
2022/09/27 02:16:52;;;;;;;1.55;0.43;;;15.20;68.10;;;;;;2486783;54;20989;-76
2022/09/27 02:21:07;;;;;;;1.75;0.50;;;15.20;68.00;;;;;;2357861;54;20930;-75
2022/09/27 02:23:45;;;;;;;1.30;0.30;;;15.30;67.90;;;;;;2296786;54;21033;-76
2022/09/27 02:26:20;;;;;;;0.68;0.30;;;15.30;67.90;;;;;;2293570;55;21033;-74
2022/09/27 02:29:35;;;;;;;0.93;0.43;;;15.30;67.90;;;;;;2519615;54;20962;-75
2022/09/27 02:32:01;;;;;;;1.23;0.32;;;15.40;68.10;;;;;;2300623;55;20985;-74
2022/09/27 02:34:30;;;;;;;1.08;0.40;;;15.30;67.90;;;;;;2294627;54;20974;-76
2022/09/27 02:36:59;;;;;;;1.30;0.50;;;15.30;67.80;;;;;;2293249;54;20928;-76
2022/09/27 02:39:26;;;;;;;1.25;0.50;;;15.30;67.70;;;;;;2295085;54;21745;-78
2022/09/27 02:41:57;;;;;;;2.30;0.50;;;15.20;67.60;;;;;;2292401;55;21461;-78
2022/09/27 02:44:23;;;;;;;1.83;0.68;;;15.30;67.70;;;;;;2298846;54;21042;-76
2022/09/27 02:47:03;;;;;;;1.40;0.50;;;15.20;67.40;;;;;;2400145;54;20981;-75
2022/09/27 02:52:14;;;;;;;2.12;0.60;;;15.20;67.30;;;;;;2302635;55;20993;-75
2022/09/27 02:56:53;;;;;;;3.72;0.70;;;15.20;66.70;;;;;;2317952;54;20968;-78
2022/09/27 02:59:57;;;;;;;2.28;0.70;;;15.20;66.60;;;;;;2313325;55;20936;-73
2022/09/27 03:03:10;;;;;;;2.28;0.62;;;15.20;66.90;;;;;;2301329;55;20978;-75
2022/09/27 03:05:47;;;;;;;1.37;0.50;;;15.20;67.20;;;;;;2318421;54;20946;-75
2022/09/27 03:08:13;;;;;;;2.80;0.80;;;15.20;67.20;;;;;;2293278;54;22064;-73
2022/09/27 03:10:39;;;;;;;3.12;0.68;;;15.10;67.30;;;;;;2298920;54;21676;-77
2022/09/27 03:13:06;;;;;;;2.60;0.65;;;15.10;67.40;;;;;;2299730;55;21429;-77
2022/09/27 03:15:32;;;;;;;3.72;0.70;;;15.10;67.30;;;;;;2358582;54;21748;-77
2022/09/27 03:17:59;;;;;;;2.50;0.70;;;15.10;67.30;;;;;;2552854;54;21956;-75
2022/09/27 03:20:25;;;;;;;2.00;0.65;;;15.10;67.40;;;;;;2296030;55;20961;-75
2022/09/27 03:22:51;;;;;;;3.05;0.70;;;15.10;67.40;;;;;;2303359;55;20982;-75
2022/09/27 03:25:20;;;;;;;6.55;0.80;;;15.10;67.30;;;;;;2289001;54;21027;-77
2022/09/27 03:27:46;;;;;;;3.58;0.82;;;15.10;67.30;;;;;;2306053;54;21006;-76
2022/09/27 03:30:13;;;;;;;3.30;0.82;;;15.10;67.30;;;;;;2291813;55;20981;-75
2022/09/27 03:32:45;;;;;;;3.22;0.90;;;15.10;67.30;;;;;;2300766;54;20965;-77
2022/09/27 03:35:12;;;;;;;2.22;0.70;;;15.00;67.00;;;;;;2546271;54;20941;-75
2022/09/27 03:37:39;;;;;;;4.22;0.70;;;15.00;67.00;;;;;;2293978;55;20993;-76
2022/09/27 03:40:07;;;;;;;1.12;0.40;;;15.00;67.00;;;;;;2296521;54;21051;-75
2022/09/27 03:42:34;;;;;;;1.80;0.50;;;15.00;67.10;;;;;;2548173;54;21561;-75
2022/09/27 03:45:00;;;;;;;1.20;0.50;;;15.00;67.20;;;;;;2293611;54;20978;-75
2022/09/27 03:47:30;;;;;;;1.15;0.40;;;14.90;67.00;;;;;;2312642;55;20925;-75
2022/09/27 03:49:57;;;;;;;2.30;0.50;;;14.90;67.00;;;;;;2288510;54;20986;-76
2022/09/27 03:52:23;;;;;;;3.10;0.50;;;14.90;67.10;;;;;;2301221;55;21052;-75
2022/09/27 03:54:49;;;;;;;1.67;0.57;;;14.90;67.10;;;;;;2295634;55;21107;-76
2022/09/27 03:57:16;;;;;;;2.65;0.40;;;14.90;67.10;;;;;;2303320;54;21753;-75
2022/09/27 03:59:42;;;;;;;2.95;0.50;;;14.80;67.00;;;;;;2290198;54;20970;-75
2022/09/27 04:02:08;;;;;;;1.90;0.55;;;14.80;67.00;;;;;;2448411;54;21001;-75
2022/09/27 04:04:34;;;;;;;3.85;0.62;;;14.80;67.00;;;;;;2314615;55;20961;-76
2022/09/27 04:07:01;;;;;;;1.52;0.47;;;14.80;67.20;;;;;;2315760;55;20972;-76
2022/09/27 04:09:28;;;;;;;3.97;0.70;;;14.80;67.30;;;;;;2298940;55;20970;-76
2022/09/27 04:11:54;;;;;;;2.95;0.80;;;14.80;67.30;;;;;;2292139;55;20990;-77
2022/09/27 04:14:20;;;;;;;1.45;0.50;;;14.70;67.30;;;;;;2294670;55;20980;-76
2022/09/27 04:16:46;;;;;;;2.87;0.62;;;14.70;67.20;;;;;;2366066;54;21000;-76
2022/09/27 04:19:13;;;;;;;2.58;0.50;;;14.70;67.10;;;;;;2307293;55;20994;-76
2022/09/27 04:21:39;;;;;;;3.22;0.60;;;14.70;67.20;;;;;;2524168;54;20969;-75
2022/09/27 04:24:05;;;;;;;1.80;0.55;;;14.70;67.20;;;;;;2294058;55;20994;-76
2022/09/27 04:26:32;;;;;;;0.88;0.40;;;14.60;67.10;;;;;;2310944;55;21004;-76
2022/09/27 04:29:00;;;;;;;1.80;0.50;;;14.70;67.00;;;;;;2534452;54;21098;-76
2022/09/27 04:31:26;;;;;;;0.73;0.28;;;14.60;66.80;;;;;;2296818;55;21382;-75
2022/09/27 04:33:53;;;;;;;1.10;0.50;;;14.60;66.80;;;;;;2313538;55;20973;-75
2022/09/27 04:36:27;;;;;;;0.93;0.35;;;14.60;66.70;;;;;;2300155;55;21601;-76
2022/09/27 04:39:03;;;;;;;1.55;0.40;;;14.50;66.60;;;;;;2301897;55;21526;-74
2022/09/27 04:41:31;;;;;;;1.35;0.37;;;14.50;66.50;;;;;;2357150;54;21024;-75
2022/09/27 04:43:59;;;;;;;0.77;0.30;;;14.50;66.60;;;;;;2296368;54;20952;-74
2022/09/27 04:46:30;;;;;;;0.70;0.40;;;14.40;66.60;;;;;;2313135;55;20933;-75
2022/09/27 04:48:59;;;;;;;1.10;0.40;;;14.40;66.60;;;;;;2461918;54;20946;-76
2022/09/27 04:51:26;;;;;;;1.55;0.40;;;14.40;66.60;;;;;;2429985;54;20976;-74
2022/09/27 04:53:52;;;;;;;2.15;0.60;;;14.30;66.60;;;;;;2305441;55;21006;-76
2022/09/27 04:56:21;;;;;;;0.45;0.30;;;14.30;66.60;;;;;;2296552;54;20929;-74
2022/09/27 04:58:47;;;;;;;0.73;0.30;;;14.30;66.70;;;;;;2374267;54;20961;-77
2022/09/27 05:01:14;;;;;;;1.70;0.50;;;14.30;66.80;;;;;;2316908;55;21036;-77
2022/09/27 05:03:40;;;;;;;1.35;0.40;;;14.30;66.90;;;;;;2429541;55;22022;-76
2022/09/27 05:06:10;;;;;;;0.90;0.30;;;14.20;67.00;;;;;;2305170;55;20952;-76
2022/09/27 05:08:36;;;;;;;0.70;0.35;;;14.20;67.00;;;;;;2297998;55;21006;-75
2022/09/27 05:11:02;;;;;;;1.27;0.50;;;14.30;67.10;;;;;;2293809;55;20985;-74
2022/09/27 05:13:29;;;;;;;0.70;0.32;;;14.20;67.10;;;;;;2293775;55;20986;-77
2022/09/27 05:16:02;;;;;;;1.10;0.40;;;14.20;67.20;;;;;;2294668;55;20947;-74
2022/09/27 05:18:28;;;;;;;1.37;0.40;;;14.20;67.20;;;;;;2314175;55;21009;-76
2022/09/27 05:20:55;;;;;;;1.58;0.37;;;14.20;67.30;;;;;;2306304;55;21050;-76
2022/09/27 05:23:21;;;;;;;1.05;0.30;;;14.20;67.30;;;;;;2296163;55;21105;-74
2022/09/27 05:25:51;;;;;;;1.58;0.50;;;14.30;67.50;;;;;;2504415;54;20992;-76
2022/09/27 05:28:17;;;;;;;2.62;0.40;;;14.20;67.40;;;;;;2293644;54;20942;-75
2022/09/27 05:30:43;;;;;;;0.62;0.35;;;14.20;67.40;;;;;;2290628;54;20953;-76
2022/09/27 05:33:09;;;;;;;1.35;0.30;;;14.20;67.30;;;;;;2477039;54;21034;-75
2022/09/27 05:35:36;;;;;;;2.03;0.50;;;14.20;67.30;;;;;;2291310;55;21313;-74
2022/09/27 05:38:05;;;;;;;1.33;0.52;;;14.20;67.40;;;;;;2309347;55;20998;-75
2022/09/27 05:40:35;;;;;;;2.85;0.68;;;14.30;67.60;;;;;;2527495;54;21012;-74
2022/09/27 05:43:06;;;;;;;1.50;0.47;;;14.20;67.50;;;;;;2297108;54;21761;-74
2022/09/27 05:45:32;;;;;;;2.97;1.40;;;14.20;67.50;;;;;;2302491;55;21659;-77
2022/09/27 05:47:59;;;;;;;2.78;1.30;;;14.30;67.70;;;;;;2524495;54;21005;-77
2022/09/27 05:50:25;;;;;;;2.65;1.25;;;14.30;67.70;;;;;;2287458;55;21001;-75
2022/09/27 05:52:51;;;;;;;2.08;0.90;;;14.30;67.70;;;;;;2354588;54;21748;-74
2022/09/27 05:55:18;;;;;;;2.62;0.93;;;14.30;67.70;;;;;;2311303;55;21068;-76
2022/09/27 05:57:57;;;;;;;4.07;1.40;;;14.30;67.80;;;;;;2291385;55;20925;-74
2022/09/27 06:00:24;;;;;;;3.45;1.35;;;14.30;67.70;;;;;;2318067;55;21044;-76
2022/09/27 06:02:57;;;;;;;2.03;0.80;;;14.30;67.80;;;;;;2481315;54;21050;-74
2022/09/27 06:05:24;;;;;;;3.20;1.05;;;14.30;67.70;;;;;;2297367;55;21083;-76
2022/09/27 06:07:51;;;;;;;3.17;1.83;;;14.30;67.80;;;;;;2310971;55;21822;-76
2022/09/27 06:10:17;;;;;;;3.87;1.20;;;14.30;67.80;;;;;;2296243;54;20982;-76
2022/09/27 06:12:44;;;;;;;2.00;0.88;;;14.30;67.80;;;;;;2304010;55;20986;-75
2022/09/27 06:15:11;;;;;;;2.55;0.70;;;14.30;67.80;;;;;;2289664;55;20968;-76
2022/09/27 06:17:37;;;;;;;1.77;0.60;;;14.30;67.90;;;;;;2315182;54;21029;-76
2022/09/27 06:20:04;;;;;;;2.35;0.80;;;14.40;68.00;;;;;;2305232;55;20961;-77
2022/09/27 06:22:30;;;;;;;2.25;0.90;;;14.40;68.00;;;;;;2300807;55;21451;-76
2022/09/27 06:25:02;;;;;;;2.60;1.02;;;14.40;67.90;;;;;;2300170;55;21007;-75
2022/09/27 06:27:30;;;;;;;1.85;0.62;;;14.40;67.90;;;;;;2305268;55;21043;-76
2022/09/27 06:29:57;;;;;;;2.42;0.82;;;14.40;67.80;;;;;;2302024;55;21045;-75
2022/09/27 06:32:24;;;;;;;2.75;1.15;;;14.40;67.90;;;;;;2369944;55;21081;-75
2022/09/27 06:34:50;;;;;;;4.15;1.48;;;14.40;67.90;;;;;;2293699;54;20954;-75
2022/09/27 06:37:19;;;;;;;2.15;0.98;;;14.40;67.80;;;;;;2296829;54;20973;-75
2022/09/27 06:39:47;;;;;;;2.67;0.90;;;14.40;67.80;;;;;;2316744;55;20957;-75
2022/09/27 06:42:14;;;;;;;2.60;1.12;;;14.40;67.90;;;;;;2302044;55;20993;-76
2022/09/27 06:44:40;;;;;;;2.20;1.10;;;14.40;67.80;;;;;;2290321;55;20982;-76
2022/09/27 06:47:07;;;;;;;2.05;0.77;;;14.40;67.80;;;;;;2307743;55;20965;-76
2022/09/27 06:49:33;;;;;;;1.70;0.70;;;14.40;67.80;;;;;;2292269;54;21014;-75
2022/09/27 06:52:00;;;;;;;3.70;0.73;;;14.40;67.90;;;;;;2288906;55;21123;-76
2022/09/27 06:54:46;;;;;;;2.05;0.50;;;14.40;67.90;;;;;;2294297;55;20961;-76
2022/09/27 07:00:22;;;;;;;2.17;0.70;;;14.40;67.70;;;;;;2277714;55;20958;-75
2022/09/27 07:02:49;;;;;;;2.50;0.62;;;14.40;67.90;;;;;;2305841;55;21029;-75
2022/09/27 07:05:18;;;;;;;2.92;0.80;;;14.40;67.80;;;;;;2299060;54;21877;-76
2022/09/27 07:07:45;;;;;;;2.40;0.90;;;14.40;67.80;;;;;;2429087;55;21111;-75
2022/09/27 07:10:11;;;;;;;2.55;1.00;;;14.40;68.00;;;;;;2328315;54;20965;-75
2022/09/27 07:12:38;;;;;;;2.70;1.20;;;14.50;68.00;;;;;;2294161;55;21534;-75
2022/09/27 07:15:05;;;;;;;2.92;1.30;;;14.50;68.10;;;;;;2517197;54;21089;-75
2022/09/27 07:17:31;;;;;;;2.87;1.00;;;14.50;68.00;;;;;;2294393;55;20959;-75
2022/09/27 07:20:21;;;;;;;2.37;1.10;;;14.50;68.00;;;;;;2335843;54;21002;-76
2022/09/27 07:22:49;;;;;;;2.65;0.90;;;14.50;67.70;;;;;;2364889;54;21014;-75
2022/09/27 07:25:15;;;;;;;1.85;0.73;;;14.50;67.90;;;;;;2383914;54;21005;-76
2022/09/27 07:27:43;;;;;;;2.33;0.80;;;14.50;67.80;;;;;;2552454;54;20961;-76
2022/09/27 07:30:10;;;;;;;2.70;1.00;;;14.50;67.80;;;;;;2315518;55;21025;-76
2022/09/27 07:32:37;;;;;;;1.80;0.65;;;14.50;67.90;;;;;;2515975;55;20986;-75
2022/09/27 07:35:04;;;;;;;4.53;0.73;;;14.50;67.90;;;;;;2400354;54;21016;-74
2022/09/27 07:37:34;;;;;;;2.12;0.75;;;14.50;67.80;;;;;;2554709;54;20960;-75
2022/09/27 07:40:01;;;;;;;1.85;0.68;;;14.50;67.90;;;;;;2314088;55;20981;-76
2022/09/27 07:42:27;;;;;;;2.17;0.85;;;14.50;68.60;;;;;;2295218;54;20978;-77
2022/09/27 07:44:56;;;;;;;2.42;0.80;;;14.50;68.00;;;;;;2303526;55;21069;-75
2022/09/27 07:47:23;;;;;;;1.33;0.50;;;14.50;67.90;;;;;;2299181;55;20961;-75
2022/09/27 07:49:51;;;;;;;2.37;0.77;;;14.50;67.90;;;;;;2531471;54;21493;-75
2022/09/27 07:52:20;;;;;;;2.20;0.70;;;14.50;67.80;;;;;;2309449;55;21001;-75
2022/09/27 07:54:48;;;;;;;1.58;0.60;;;14.60;67.90;;;;;;2532315;54;20966;-75
2022/09/27 07:57:15;;;;;;;1.65;0.60;;;14.50;67.80;;;;;;2305629;54;20949;-75
2022/09/27 07:59:41;;;;;;;2.65;0.70;;;14.60;67.80;;;;;;2329301;54;21040;-75
2022/09/27 08:02:47;;;;;;;3.47;0.90;;;14.60;67.80;;;;;;2404555;54;20961;-75
2022/09/27 08:05:15;;;;;;;0.80;0.50;;;14.60;67.60;;;;;;2313364;55;21561;-75
2022/09/27 08:07:42;;;;;;;2.65;0.55;;;14.60;67.80;;;;;;2315009;55;20961;-75
2022/09/27 08:10:08;;;;;;;1.77;0.75;;;14.60;67.80;;;;;;2314175;55;20996;-75
2022/09/27 08:12:34;;;;;;;1.58;0.70;;;14.60;67.80;;;;;;2315204;55;21560;-75
2022/09/27 08:15:01;;;;;;;3.62;0.80;;;14.60;67.80;;;;;;2310198;55;21052;-75
2022/09/27 08:17:28;;;;;;;1.55;0.50;;;14.60;67.80;;;;;;2400590;54;20989;-75
2022/09/27 08:19:55;;;;;;;1.17;0.70;;;14.70;68.00;;;;;;2315032;55;21017;-74
2022/09/27 08:22:22;;;;;;;1.35;0.55;;;14.70;67.90;;;;;;2526298;54;21016;-75
2022/09/27 08:24:49;;;;;;;2.12;0.75;;;14.70;67.70;;;;;;2315014;55;20969;-75
2022/09/27 08:27:15;;;;;;;1.00;0.50;;;14.70;67.70;;;;;;2293948;54;20953;-75
2022/09/27 08:29:41;;;;;;;2.12;0.70;;;14.70;67.60;;;;;;2315633;55;21012;-75
2022/09/27 08:32:08;;;;;;;1.80;0.57;;;14.70;67.60;;;;;;2455059;54;21522;-75
2022/09/27 08:34:38;;;;;;;2.67;0.70;;;14.70;67.60;;;;;;2307676;55;21199;-75
2022/09/27 08:37:11;;;;;;;1.40;0.50;;;14.80;67.70;;;;;;2297469;54;21721;-75
2022/09/27 08:39:39;;;;;;;8.02;1.15;;;14.80;67.70;;;;;;2301809;54;21074;-75
2022/09/27 08:43:30;;;;;;;1.20;0.50;;;14.80;67.80;;;;;;2306004;55;21643;-75
2022/09/27 08:46:27;;;;;;;1.60;0.60;;;14.80;67.50;;;;;;2313895;55;20961;-75
2022/09/27 08:48:56;;;;;;;1.45;0.60;;;14.90;67.60;;;;;;2315248;55;21025;-75
2022/09/27 08:51:26;;;;;;;2.10;0.60;;;14.90;67.90;;;;;;2436952;54;20953;-80
2022/09/27 08:57:21;;;;;;;2.20;0.80;;;14.90;67.70;;;;;;2351467;54;21068;-76
2022/09/27 09:00:06;;;;;;;1.52;0.50;;;14.90;68.00;;;;;;2314605;55;20954;-77
2022/09/27 09:03:00;;;;;;;3.10;0.77;;;15.00;68.00;;;;;;2319839;54;21068;-75
2022/09/27 09:05:32;;;;;;;2.75;0.60;;;15.00;67.90;;;;;;2313205;54;20995;-75
2022/09/27 09:26:59;;;;;;;0.77;0.40;;;15.10;68.30;;;;;;2314930;55;21325;-77
2022/09/27 09:31:26;;;;;;;1.25;0.37;;;15.40;67.30;;;;;;2339640;53;22801;-77
2022/09/27 09:33:56;;;;;;;1.75;0.60;;;15.50;68.00;;;;;;2433839;53;20988;-77
2022/09/27 09:36:46;;;;;;;2.75;0.60;;;15.50;68.30;;;;;;2328442;54;21704;-77
2022/09/27 09:39:18;;;;;;;1.48;0.62;;;15.60;67.80;;;;;;2348067;53;20946;-77
2022/09/27 09:43:41;;;;;;;1.45;0.40;;;15.60;68.10;;;;;;2330697;54;20975;-79
2022/09/27 09:46:39;;;;;;;2.25;0.47;;;15.70;67.70;;;;;;2350416;53;20936;-77
2022/09/27 09:49:28;;;;;;;1.42;0.60;;;15.70;67.40;;;;;;2481218;53;21431;-77
2022/09/27 09:52:00;;;;;;;4.75;0.60;;;15.80;67.30;;;;;;2329749;53;21419;-78
2022/09/27 09:55:22;;;;;;;1.92;0.70;;;15.80;67.60;;;;;;2335486;53;21484;-77
2022/09/27 09:58:12;;;;;;;2.25;0.47;;;15.80;67.40;;;;;;2458357;53;20978;-77
2022/09/27 10:00:59;;;;;;;1.62;0.40;;;15.90;67.50;;;;;;2325079;53;20907;-77
2022/09/27 10:03:25;;;;;;;1.42;0.65;;;15.90;67.10;;;;;;2357172;53;21569;-78
2022/09/27 10:05:52;;;;;;;1.58;0.50;;;16.00;67.60;;;;;;2329329;54;21819;-77
2022/09/27 10:08:21;;;;;;;1.62;0.60;;;16.00;67.50;;;;;;2540389;53;21360;-78
2022/09/27 10:11:03;;;;;;;1.70;0.52;;;16.00;67.30;;;;;;2375320;53;21468;-78
2022/09/27 10:13:30;;;;;;;1.83;0.50;;;16.00;66.70;;;;;;2538913;53;20964;-79
2022/09/27 10:16:10;;;;;;;1.00;0.50;;;16.10;67.30;;;;;;2579104;53;20945;-77
2022/09/27 10:18:37;;;;;;;1.35;0.50;;;16.10;67.10;;;;;;2333784;54;20945;-77
2022/09/27 10:21:06;;;;;;;1.25;0.70;;;16.10;67.00;;;;;;2541153;53;20980;-76
2022/09/27 10:23:32;;;;;;;1.40;0.50;;;16.20;66.80;;;;;;2574027;53;20971;-79
2022/09/27 10:26:02;;;;;;;1.67;0.50;;;16.20;66.60;;;;;;2453634;52;20964;-78
2022/09/27 10:28:42;;;;;;;0.85;0.40;;;16.20;66.40;;;;;;2498046;52;20976;-76
2022/09/27 10:31:13;;;;;;;2.00;0.60;;;16.20;66.10;;;;;;2350778;53;20959;-78
2022/09/27 10:34:05;;;;;;;1.27;0.50;;;16.20;66.40;;;;;;2368932;52;20947;-79
2022/09/27 10:36:35;;;;;;;1.42;0.43;;;16.20;65.70;;;;;;2618258;52;20932;-78
2022/09/27 10:39:05;;;;;;;0.95;0.40;;;16.20;66.20;;;;;;2467672;52;20950;-77
2022/09/27 10:41:36;;;;;;;1.08;0.40;;;16.20;65.90;;;;;;2414823;52;21946;-78
2022/09/27 10:48:31;;;;;;;0.80;0.30;;;16.20;65.90;;;;;;2413998;52;20963;-76
2022/09/27 10:51:01;;;;;;;0.85;0.45;;;16.20;65.10;;;;;;2366869;53;21416;-78
2022/09/27 10:53:28;;;;;;;0.62;0.40;;;16.20;65.70;;;;;;2353908;53;20993;-79
2022/09/27 10:55:54;;;;;;;1.25;0.60;;;16.10;65.60;;;;;;2355092;53;21844;-76
2022/09/27 10:58:35;;;;;;;2.08;0.90;;;16.10;65.60;;;;;;2367819;53;20936;-77
2022/09/27 11:01:06;;;;;;;1.60;0.80;;;16.10;65.60;;;;;;2419186;52;21011;-78
2022/09/27 11:03:37;;;;;;;1.62;0.62;;;16.00;65.70;;;;;;2363519;56;21143;-78
2022/09/27 11:06:19;;;;;;;3.15;1.17;;;16.00;65.70;;;;;;2355705;56;21944;-78
2022/09/27 11:08:47;;;;;;;4.60;2.65;;;16.00;65.40;;;;;;2607350;52;21655;-79
2022/09/27 11:11:21;;;;;;;5.53;2.97;;;16.00;65.90;;;;;;2373870;52;21689;-77
2022/09/27 11:14:31;;;;;;;4.68;2.00;;;16.00;65.80;;;;;;2534157;52;20949;-78
2022/09/27 11:19:48;;;;;;;4.93;2.55;;;16.00;65.30;;;;;;2365407;53;21107;-78
2022/09/27 11:22:34;;;;;;;3.80;1.80;;;16.00;65.30;;;;;;2445759;52;21519;-76
2022/09/27 11:25:29;;;;;;;3.67;1.50;;;16.00;65.80;;;;;;2356111;53;20990;-78
2022/09/27 11:28:33;;;;;;;2.55;0.88;;;16.00;65.80;;;;;;2371591;53;20990;-78
2022/09/27 11:32:40;;;;;;;1.98;0.73;;;16.00;65.80;;;;;;2361473;53;20994;-77
2022/09/27 11:36:51;;;;;;;2.08;0.70;;;16.00;65.90;;;;;;2369721;53;20966;-77
2022/09/27 11:39:50;;;;;;;2.00;0.60;;;16.00;66.00;;;;;;2468711;52;20949;-77
2022/09/27 11:42:32;;;;;;;2.62;0.70;;;16.00;65.90;;;;;;2623538;52;20942;-77
2022/09/27 11:45:36;;;;;;;2.10;0.90;;;16.00;66.10;;;;;;2371295;53;21470;-77
2022/09/27 11:51:17;;;;;;;2.15;0.50;;;16.00;66.00;;;;;;2447198;52;20986;-76
2022/09/27 11:54:46;;;;;;;2.10;0.47;;;16.00;65.80;;;;;;2370216;53;20977;-76
2022/09/27 12:04:11;;;;;;;1.00;0.40;;;16.00;66.20;;;;;;2370077;53;21962;-76
2022/09/27 12:10:12;;;;;;;0.75;0.30;;;16.00;65.40;;;;;;2371265;53;21313;-76
2022/09/27 12:12:39;;;;;;;0.47;0.22;;;15.90;65.20;;;;;;2400660;52;20973;-78
2022/09/27 12:15:12;;;;;;;0.90;0.35;;;15.90;65.80;;;;;;2371706;53;20986;-76
2022/09/27 12:17:43;;;;;;;0.90;0.30;;;15.90;66.40;;;;;;2371503;53;20950;-75
2022/09/27 12:20:21;;;;;;;1.35;0.40;;;15.80;65.80;;;;;;2369820;53;20951;-76
2022/09/27 12:22:56;;;;;;;1.77;0.40;;;15.80;65.50;;;;;;2370996;53;20934;-79
2022/09/27 12:25:28;;;;;;;1.12;0.37;;;15.70;65.50;;;;;;2369481;53;21359;-76
2022/09/27 12:29:35;;;;;;;0.50;0.25;;;15.70;65.80;;;;;;2366870;53;20938;-79
2022/09/27 12:35:34;;;;;;;1.25;0.45;;;15.70;65.10;;;;;;2373044;53;20919;-78
2022/09/27 12:38:03;;;;;;;1.50;0.30;;;15.70;65.20;;;;;;2337079;54;21451;-77
2022/09/27 12:40:40;;;;;;;2.50;0.52;;;15.70;65.90;;;;;;2370065;53;21037;-77
2022/09/27 12:43:13;;;;;;;3.85;1.12;;;15.60;65.60;;;;;;2445364;53;20919;-76
2022/09/27 12:45:59;;;;;;;5.25;1.70;;;15.70;66.00;;;;;;2393824;52;20981;-78
2022/09/27 12:56:54;;;;;;;3.15;1.17;;;15.70;65.70;;;;;;2369967;53;20982;-78
2022/09/27 13:04:44;;;;;;;1.87;0.75;;;15.80;65.30;;;;;;2370487;53;20927;-76
2022/09/27 13:08:51;;;;;;;1.12;0.43;;;15.80;65.20;;;;;;2385981;52;21533;-76
2022/09/27 13:13:56;;;;;;;3.70;1.23;;;15.80;65.10;;;;;;2370737;53;20918;-76
2022/09/27 13:16:50;;;;;;;1.37;0.60;;;15.80;64.70;;;;;;2369283;53;20898;-76
2022/09/27 13:19:38;;;;;;;6.12;2.78;;;15.80;64.90;;;;;;2618505;52;21851;-77
2022/09/27 13:22:25;;;;;;;6.45;2.67;;;15.80;64.90;;;;;;2365201;53;20969;-77
2022/09/27 13:24:57;;;;;;;6.03;2.35;;;15.70;65.10;;;;;;2427077;52;20998;-77
2022/09/27 13:27:42;;;;;;;7.07;2.37;;;15.70;64.80;;;;;;2369901;53;21365;-78
2022/09/27 13:36:47;;;;;;;4.00;2.10;;;15.70;64.30;;;;;;2369724;53;21789;-80
2022/09/27 13:39:18;;;;;;;1.50;0.60;;;15.60;63.70;;;;;;2431798;52;20926;-78
2022/09/27 13:42:11;;;;;;;0.95;0.40;;;15.50;64.50;;;;;;2374092;53;21946;-77
2022/09/27 13:44:52;;;;;;;1.25;0.40;;;15.50;64.50;;;;;;2365385;53;21841;-78
2022/09/27 13:47:34;;;;;;;1.15;0.45;;;15.40;65.00;;;;;;2469655;52;20955;-78
2022/09/27 13:50:15;;;;;;;0.25;0.20;;;15.30;64.90;;;;;;2622185;52;21842;-77
2022/09/27 13:52:45;;;;;;;1.52;0.32;;;15.30;65.00;;;;;;2370178;53;21412;-77
2022/09/27 13:57:51;;;;;;;0.80;0.30;;;15.30;65.10;;;;;;2548068;52;21036;-77
2022/09/27 14:00:22;;;;;;;0.22;0.15;;;15.20;64.50;;;;;;2370627;53;20910;-77
2022/09/27 14:03:49;;;;;;;0.47;0.20;;;15.20;65.20;;;;;;2427797;52;21005;-77
2022/09/27 14:06:36;;;;;;;0.70;0.30;;;15.10;64.70;;;;;;2366204;53;20953;-76
2022/09/27 14:09:07;;;;;;;0.98;0.32;;;15.10;65.30;;;;;;2370534;53;20910;-77
2022/09/27 14:15:18;;;;;;;0.60;0.30;;;15.00;65.50;;;;;;2369826;53;20962;-77
2022/09/27 14:17:45;;;;;;;0.47;0.20;;;15.00;66.00;;;;;;2371383;53;21976;-77
2022/09/27 14:20:40;;;;;;;1.92;0.47;;;15.00;66.50;;;;;;2463800;53;20938;-76
2022/09/27 14:23:31;;;;;;;0.57;0.30;;;15.00;66.60;;;;;;2371458;53;20977;-76
2022/09/27 14:26:00;;;;;;;1.77;0.60;;;15.10;67.00;;;;;;2472503;52;20953;-76
2022/09/27 14:28:29;;;;;;;1.23;0.45;;;15.10;67.10;;;;;;2371727;53;20942;-76
2022/09/27 14:32:03;;;;;;;2.28;0.50;;;15.10;67.20;;;;;;2370093;53;20942;-77
2022/09/27 14:34:32;;;;;;;2.45;0.62;;;15.20;66.80;;;;;;2514785;53;20938;-78
2022/09/27 14:39:42;;;;;;;0.90;0.32;;;15.20;67.00;;;;;;2606902;52;21409;-76
2022/09/27 14:42:21;;;;;;;1.77;0.70;;;15.20;66.80;;;;;;2370470;53;20930;-76
2022/09/27 14:44:48;;;;;;;1.65;0.40;;;15.30;66.60;;;;;;2567119;52;20938;-77
2022/09/27 14:47:24;;;;;;;1.17;0.40;;;15.30;66.50;;;;;;2368837;53;21008;-76
2022/09/27 14:50:02;;;;;;;1.55;0.50;;;15.30;66.10;;;;;;2612927;52;20939;-76
2022/09/27 14:52:33;;;;;;;1.02;0.40;;;15.30;66.00;;;;;;2370772;53;20923;-77
2022/09/27 14:55:16;;;;;;;0.68;0.40;;;15.30;66.10;;;;;;2370818;53;20954;-76
2022/09/27 14:57:46;;;;;;;3.28;1.58;;;15.30;65.50;;;;;;2371609;53;20926;-77
2022/09/27 15:03:41;;;;;;;3.10;1.55;;;15.30;64.90;;;;;;2405033;52;21001;-76
2022/09/27 15:06:10;;;;;;;2.45;0.95;;;15.30;65.50;;;;;;2370408;53;20998;-76
2022/09/27 15:08:37;;;;;;;1.98;0.73;;;15.30;65.50;;;;;;2370607;53;20925;-77
2022/09/27 15:11:05;;;;;;;1.73;0.60;;;15.20;65.50;;;;;;2368082;53;20985;-76
2022/09/27 15:13:32;;;;;;;1.05;0.40;;;15.30;65.70;;;;;;2369315;53;21419;-76